sensor_id;sensor_type;location;lat;lon;timestamp;P1;durP1;ratioP1;P2;durP2;ratioP2
1428;SDS011;708;51.442;7.016;2022-08-19T00:02:22;9.73;;;8.70;;
1428;SDS011;708;51.442;7.016;2022-08-19T00:04:49;9.85;;;8.85;;
1428;SDS011;708;51.442;7.016;2022-08-19T00:07:17;8.35;;;7.47;;
1428;SDS011;708;51.442;7.016;2022-08-19T00:09:45;8.63;;;7.82;;
1428;SDS011;708;51.442;7.016;2022-08-19T00:12:13;8.25;;;7.50;;
1428;SDS011;708;51.442;7.016;2022-08-19T00:14:40;9.68;;;8.77;;
1428;SDS011;708;51.442;7.016;2022-08-19T00:17:07;10.93;;;9.55;;
1428;SDS011;708;51.442;7.016;2022-08-19T00:19:35;9.93;;;9.13;;
1428;SDS011;708;51.442;7.016;2022-08-19T00:22:02;7.80;;;7.10;;
1428;SDS011;708;51.442;7.016;2022-08-19T00:24:30;11.60;;;10.63;;
1428;SDS011;708;51.442;7.016;2022-08-19T00:26:57;9.43;;;8.25;;
1428;SDS011;708;51.442;7.016;2022-08-19T00:29:28;9.27;;;8.32;;
1428;SDS011;708;51.442;7.016;2022-08-19T00:31:55;12.07;;;9.95;;
1428;SDS011;708;51.442;7.016;2022-08-19T00:34:23;9.38;;;8.40;;
1428;SDS011;708;51.442;7.016;2022-08-19T00:36:52;9.98;;;8.48;;
1428;SDS011;708;51.442;7.016;2022-08-19T00:39:19;8.95;;;8.13;;
1428;SDS011;708;51.442;7.016;2022-08-19T00:41:47;9.32;;;6.72;;
1428;SDS011;708;51.442;7.016;2022-08-19T00:44:15;10.75;;;9.02;;
1428;SDS011;708;51.442;7.016;2022-08-19T00:46:46;8.75;;;7.95;;
1428;SDS011;708;51.442;7.016;2022-08-19T00:49:16;9.20;;;8.30;;
1428;SDS011;708;51.442;7.016;2022-08-19T00:51:46;8.63;;;7.93;;
1428;SDS011;708;51.442;7.016;2022-08-19T00:54:17;9.65;;;8.70;;
1428;SDS011;708;51.442;7.016;2022-08-19T00:56:46;10.48;;;9.48;;
1428;SDS011;708;51.442;7.016;2022-08-19T00:59:14;10.90;;;9.60;;
1428;SDS011;708;51.442;7.016;2022-08-19T01:01:42;8.80;;;7.60;;
1428;SDS011;708;51.442;7.016;2022-08-19T01:04:12;10.27;;;9.38;;
1428;SDS011;708;51.442;7.016;2022-08-19T01:06:40;9.00;;;8.10;;
1428;SDS011;708;51.442;7.016;2022-08-19T01:09:07;12.35;;;8.18;;
1428;SDS011;708;51.442;7.016;2022-08-19T01:11:35;11.77;;;9.13;;
1428;SDS011;708;51.442;7.016;2022-08-19T01:14:05;9.43;;;7.65;;
1428;SDS011;708;51.442;7.016;2022-08-19T01:16:33;9.75;;;8.85;;
1428;SDS011;708;51.442;7.016;2022-08-19T01:19:01;9.45;;;8.55;;
1428;SDS011;708;51.442;7.016;2022-08-19T01:21:30;11.35;;;9.50;;
1428;SDS011;708;51.442;7.016;2022-08-19T01:24:01;9.73;;;8.82;;
1428;SDS011;708;51.442;7.016;2022-08-19T01:26:28;10.13;;;9.20;;
1428;SDS011;708;51.442;7.016;2022-08-19T01:28:57;7.50;;;6.90;;
1428;SDS011;708;51.442;7.016;2022-08-19T01:31:26;10.88;;;9.35;;
1428;SDS011;708;51.442;7.016;2022-08-19T01:33:56;10.15;;;9.15;;
1428;SDS011;708;51.442;7.016;2022-08-19T01:36:24;7.15;;;6.45;;
1428;SDS011;708;51.442;7.016;2022-08-19T01:38:53;9.70;;;8.32;;
1428;SDS011;708;51.442;7.016;2022-08-19T01:41:22;10.38;;;9.35;;
1428;SDS011;708;51.442;7.016;2022-08-19T01:43:49;10.65;;;9.55;;
1428;SDS011;708;51.442;7.016;2022-08-19T01:46:16;10.30;;;9.40;;
1428;SDS011;708;51.442;7.016;2022-08-19T01:48:43;8.98;;;8.10;;
1428;SDS011;708;51.442;7.016;2022-08-19T01:51:11;9.23;;;8.43;;
1428;SDS011;708;51.442;7.016;2022-08-19T01:53:38;9.35;;;8.45;;
1428;SDS011;708;51.442;7.016;2022-08-19T01:56:06;8.82;;;7.93;;
1428;SDS011;708;51.442;7.016;2022-08-19T01:58:36;10.57;;;9.60;;
1428;SDS011;708;51.442;7.016;2022-08-19T02:01:07;10.23;;;9.23;;
1428;SDS011;708;51.442;7.016;2022-08-19T02:03:34;10.10;;;9.00;;
1428;SDS011;708;51.442;7.016;2022-08-19T02:06:02;9.40;;;8.50;;
1428;SDS011;708;51.442;7.016;2022-08-19T02:08:30;9.73;;;8.93;;
1428;SDS011;708;51.442;7.016;2022-08-19T02:10:59;11.20;;;9.98;;
1428;SDS011;708;51.442;7.016;2022-08-19T02:13:26;9.82;;;8.82;;
1428;SDS011;708;51.442;7.016;2022-08-19T02:15:54;9.45;;;8.65;;
1428;SDS011;708;51.442;7.016;2022-08-19T02:18:20;10.40;;;9.40;;
1428;SDS011;708;51.442;7.016;2022-08-19T02:20:47;11.32;;;10.27;;
1428;SDS011;708;51.442;7.016;2022-08-19T02:23:14;10.65;;;9.65;;
1428;SDS011;708;51.442;7.016;2022-08-19T02:25:45;11.38;;;9.93;;
1428;SDS011;708;51.442;7.016;2022-08-19T02:28:13;9.00;;;8.18;;
1428;SDS011;708;51.442;7.016;2022-08-19T02:30:41;10.13;;;9.23;;
1428;SDS011;708;51.442;7.016;2022-08-19T02:33:09;9.77;;;8.95;;
1428;SDS011;708;51.442;7.016;2022-08-19T02:35:36;9.23;;;7.40;;
1428;SDS011;708;51.442;7.016;2022-08-19T02:38:03;6.80;;;6.20;;
1428;SDS011;708;51.442;7.016;2022-08-19T02:40:48;9.30;;;8.48;;
1428;SDS011;708;51.442;7.016;2022-08-19T02:43:16;8.75;;;7.85;;
1428;SDS011;708;51.442;7.016;2022-08-19T02:45:45;9.10;;;8.20;;
1428;SDS011;708;51.442;7.016;2022-08-19T02:48:14;6.70;;;6.00;;
1428;SDS011;708;51.442;7.016;2022-08-19T02:50:42;8.75;;;7.93;;
1428;SDS011;708;51.442;7.016;2022-08-19T02:53:09;9.43;;;8.55;;
1428;SDS011;708;51.442;7.016;2022-08-19T02:55:41;10.73;;;9.55;;
1428;SDS011;708;51.442;7.016;2022-08-19T02:58:09;11.95;;;9.52;;
1428;SDS011;708;51.442;7.016;2022-08-19T03:00:35;9.43;;;8.63;;
1428;SDS011;708;51.442;7.016;2022-08-19T03:03:07;8.52;;;7.82;;
1428;SDS011;708;51.442;7.016;2022-08-19T03:05:35;6.80;;;6.15;;
1428;SDS011;708;51.442;7.016;2022-08-19T03:08:02;9.23;;;8.43;;
1428;SDS011;708;51.442;7.016;2022-08-19T03:10:30;7.25;;;6.65;;
1428;SDS011;708;51.442;7.016;2022-08-19T03:12:57;7.50;;;6.80;;
1428;SDS011;708;51.442;7.016;2022-08-19T03:15:24;6.68;;;6.07;;
1428;SDS011;708;51.442;7.016;2022-08-19T03:17:51;7.35;;;6.75;;
1428;SDS011;708;51.442;7.016;2022-08-19T03:20:18;8.32;;;7.63;;
1428;SDS011;708;51.442;7.016;2022-08-19T03:22:46;9.63;;;8.27;;
1428;SDS011;708;51.442;7.016;2022-08-19T03:25:13;9.70;;;8.80;;
1428;SDS011;708;51.442;7.016;2022-08-19T03:27:40;8.95;;;8.15;;
1428;SDS011;708;51.442;7.016;2022-08-19T03:30:07;9.80;;;8.80;;
1428;SDS011;708;51.442;7.016;2022-08-19T03:32:35;9.90;;;6.78;;
1428;SDS011;708;51.442;7.016;2022-08-19T03:35:02;9.10;;;7.90;;
1428;SDS011;708;51.442;7.016;2022-08-19T03:37:31;7.55;;;6.85;;
1428;SDS011;708;51.442;7.016;2022-08-19T03:39:59;8.63;;;7.72;;
1428;SDS011;708;51.442;7.016;2022-08-19T03:42:28;7.57;;;6.88;;
1428;SDS011;708;51.442;7.016;2022-08-19T03:44:55;9.35;;;8.35;;
1428;SDS011;708;51.442;7.016;2022-08-19T03:47:23;9.52;;;8.60;;
1428;SDS011;708;51.442;7.016;2022-08-19T03:49:50;8.00;;;7.30;;
1428;SDS011;708;51.442;7.016;2022-08-19T03:52:17;8.63;;;7.53;;
1428;SDS011;708;51.442;7.016;2022-08-19T03:54:44;9.20;;;7.35;;
1428;SDS011;708;51.442;7.016;2022-08-19T03:57:12;11.00;;;7.72;;
1428;SDS011;708;51.442;7.016;2022-08-19T03:59:39;8.88;;;8.07;;
1428;SDS011;708;51.442;7.016;2022-08-19T04:02:07;8.75;;;7.50;;
1428;SDS011;708;51.442;7.016;2022-08-19T04:04:36;10.43;;;8.82;;
1428;SDS011;708;51.442;7.016;2022-08-19T04:07:03;10.15;;;9.25;;
1428;SDS011;708;51.442;7.016;2022-08-19T04:09:30;8.88;;;8.07;;
1428;SDS011;708;51.442;7.016;2022-08-19T04:11:58;10.75;;;9.65;;
1428;SDS011;708;51.442;7.016;2022-08-19T04:14:27;9.52;;;8.60;;
1428;SDS011;708;51.442;7.016;2022-08-19T04:16:56;10.10;;;8.40;;
1428;SDS011;708;51.442;7.016;2022-08-19T04:19:24;8.77;;;7.88;;
1428;SDS011;708;51.442;7.016;2022-08-19T04:21:52;9.38;;;8.50;;
1428;SDS011;708;51.442;7.016;2022-08-19T04:24:20;9.10;;;8.20;;
1428;SDS011;708;51.442;7.016;2022-08-19T04:26:48;9.80;;;8.80;;
1428;SDS011;708;51.442;7.016;2022-08-19T04:29:17;9.73;;;8.93;;
1428;SDS011;708;51.442;7.016;2022-08-19T04:31:48;12.43;;;11.23;;
1428;SDS011;708;51.442;7.016;2022-08-19T04:34:16;11.43;;;10.32;;
1428;SDS011;708;51.442;7.016;2022-08-19T04:36:47;10.27;;;9.27;;
1428;SDS011;708;51.442;7.016;2022-08-19T04:39:17;11.48;;;10.38;;
1428;SDS011;708;51.442;7.016;2022-08-19T04:41:47;12.00;;;10.70;;
1428;SDS011;708;51.442;7.016;2022-08-19T04:44:32;14.63;;;13.10;;
1428;SDS011;708;51.442;7.016;2022-08-19T04:47:02;11.48;;;10.38;;
1428;SDS011;708;51.442;7.016;2022-08-19T04:49:30;13.40;;;12.20;;
1428;SDS011;708;51.442;7.016;2022-08-19T04:51:57;13.55;;;12.35;;
1428;SDS011;708;51.442;7.016;2022-08-19T04:54:24;14.68;;;13.27;;
1428;SDS011;708;51.442;7.016;2022-08-19T04:56:51;14.65;;;13.13;;
1428;SDS011;708;51.442;7.016;2022-08-19T04:59:19;12.00;;;10.82;;
1428;SDS011;708;51.442;7.016;2022-08-19T05:01:46;10.95;;;9.85;;
1428;SDS011;708;51.442;7.016;2022-08-19T05:04:17;15.95;;;11.70;;
1428;SDS011;708;51.442;7.016;2022-08-19T05:06:45;13.65;;;11.30;;
1428;SDS011;708;51.442;7.016;2022-08-19T05:09:13;15.15;;;12.25;;
1428;SDS011;708;51.442;7.016;2022-08-19T05:11:41;13.20;;;11.80;;
1428;SDS011;708;51.442;7.016;2022-08-19T05:14:09;13.93;;;12.55;;
1428;SDS011;708;51.442;7.016;2022-08-19T05:16:38;16.02;;;14.52;;
1428;SDS011;708;51.442;7.016;2022-08-19T05:19:05;15.00;;;13.60;;
1428;SDS011;708;51.442;7.016;2022-08-19T05:21:52;14.57;;;13.20;;
1428;SDS011;708;51.442;7.016;2022-08-19T05:24:36;15.30;;;13.80;;
1428;SDS011;708;51.442;7.016;2022-08-19T05:27:06;15.77;;;14.07;;
1428;SDS011;708;51.442;7.016;2022-08-19T05:29:33;13.50;;;12.10;;
1428;SDS011;708;51.442;7.016;2022-08-19T05:32:00;15.30;;;13.80;;
1428;SDS011;708;51.442;7.016;2022-08-19T05:34:30;17.13;;;15.40;;
1428;SDS011;708;51.442;7.016;2022-08-19T05:37:01;16.70;;;15.00;;
1428;SDS011;708;51.442;7.016;2022-08-19T05:39:30;12.90;;;11.38;;
1428;SDS011;708;51.442;7.016;2022-08-19T05:42:01;15.13;;;13.80;;
1428;SDS011;708;51.442;7.016;2022-08-19T05:44:30;13.93;;;12.63;;
1428;SDS011;708;51.442;7.016;2022-08-19T05:46:58;12.00;;;10.80;;
1428;SDS011;708;51.442;7.016;2022-08-19T05:49:28;15.70;;;14.07;;
1428;SDS011;708;51.442;7.016;2022-08-19T05:51:57;14.07;;;12.70;;
1428;SDS011;708;51.442;7.016;2022-08-19T05:54:26;9.80;;;8.90;;
1428;SDS011;708;51.442;7.016;2022-08-19T05:56:52;11.13;;;10.10;;
1428;SDS011;708;51.442;7.016;2022-08-19T05:59:20;12.90;;;11.60;;
1428;SDS011;708;51.442;7.016;2022-08-19T06:01:48;14.07;;;12.30;;
1428;SDS011;708;51.442;7.016;2022-08-19T06:04:17;11.57;;;10.37;;
1428;SDS011;708;51.442;7.016;2022-08-19T06:06:45;13.20;;;10.73;;
1428;SDS011;708;51.442;7.016;2022-08-19T06:09:12;18.47;;;15.73;;
1428;SDS011;708;51.442;7.016;2022-08-19T06:11:41;16.27;;;14.77;;
1428;SDS011;708;51.442;7.016;2022-08-19T06:14:10;16.97;;;14.37;;
1428;SDS011;708;51.442;7.016;2022-08-19T06:16:40;11.00;;;10.00;;
1428;SDS011;708;51.442;7.016;2022-08-19T06:19:08;18.80;;;16.87;;
1428;SDS011;708;51.442;7.016;2022-08-19T06:21:36;15.80;;;14.10;;
1428;SDS011;708;51.442;7.016;2022-08-19T06:24:05;18.37;;;16.60;;
1428;SDS011;708;51.442;7.016;2022-08-19T06:26:33;16.73;;;15.10;;
1428;SDS011;708;51.442;7.016;2022-08-19T06:29:02;21.00;;;19.10;;
1428;SDS011;708;51.442;7.016;2022-08-19T06:31:32;16.33;;;14.83;;
1428;SDS011;708;51.442;7.016;2022-08-19T06:34:00;15.13;;;13.73;;
1428;SDS011;708;51.442;7.016;2022-08-19T06:36:29;15.67;;;14.13;;
1428;SDS011;708;51.442;7.016;2022-08-19T06:38:59;22.03;;;19.83;;
1428;SDS011;708;51.442;7.016;2022-08-19T06:41:27;24.93;;;22.30;;
1428;SDS011;708;51.442;7.016;2022-08-19T06:43:55;13.10;;;11.93;;
1428;SDS011;708;51.442;7.016;2022-08-19T06:46:23;23.73;;;21.33;;
1428;SDS011;708;51.442;7.016;2022-08-19T06:48:51;20.93;;;17.77;;
1428;SDS011;708;51.442;7.016;2022-08-19T06:51:20;20.30;;;18.23;;
1428;SDS011;708;51.442;7.016;2022-08-19T06:53:53;29.20;;;26.03;;
1428;SDS011;708;51.442;7.016;2022-08-19T06:56:23;28.60;;;25.80;;
1428;SDS011;708;51.442;7.016;2022-08-19T06:58:55;13.53;;;12.13;;
1428;SDS011;708;51.442;7.016;2022-08-19T07:01:23;19.63;;;17.63;;
1428;SDS011;708;51.442;7.016;2022-08-19T07:03:50;29.10;;;26.10;;
1428;SDS011;708;51.442;7.016;2022-08-19T07:06:18;27.07;;;24.30;;
1428;SDS011;708;51.442;7.016;2022-08-19T07:08:46;17.83;;;16.13;;
1428;SDS011;708;51.442;7.016;2022-08-19T07:11:14;27.57;;;24.90;;
1428;SDS011;708;51.442;7.016;2022-08-19T07:13:43;21.80;;;19.80;;
1428;SDS011;708;51.442;7.016;2022-08-19T07:16:14;21.00;;;19.00;;
1428;SDS011;708;51.442;7.016;2022-08-19T07:18:43;18.93;;;17.03;;
1428;SDS011;708;51.442;7.016;2022-08-19T07:21:12;27.60;;;24.80;;
1428;SDS011;708;51.442;7.016;2022-08-19T07:23:41;17.53;;;16.03;;
1428;SDS011;708;51.442;7.016;2022-08-19T07:26:10;24.63;;;22.33;;
1428;SDS011;708;51.442;7.016;2022-08-19T07:28:39;20.30;;;18.40;;
1428;SDS011;708;51.442;7.016;2022-08-19T07:31:09;28.03;;;25.53;;
1428;SDS011;708;51.442;7.016;2022-08-19T07:33:37;26.37;;;23.93;;
1428;SDS011;708;51.442;7.016;2022-08-19T07:36:06;25.43;;;22.87;;
1428;SDS011;708;51.442;7.016;2022-08-19T07:38:36;23.47;;;21.07;;
1428;SDS011;708;51.442;7.016;2022-08-19T07:41:04;26.60;;;24.03;;
1428;SDS011;708;51.442;7.016;2022-08-19T07:43:31;25.10;;;22.60;;
1428;SDS011;708;51.442;7.016;2022-08-19T07:45:58;22.80;;;20.70;;
1428;SDS011;708;51.442;7.016;2022-08-19T07:48:26;18.60;;;16.90;;
1428;SDS011;708;51.442;7.016;2022-08-19T07:50:53;22.37;;;20.27;;
1428;SDS011;708;51.442;7.016;2022-08-19T07:53:23;28.93;;;26.03;;
1428;SDS011;708;51.442;7.016;2022-08-19T07:55:54;19.30;;;17.50;;
1428;SDS011;708;51.442;7.016;2022-08-19T07:58:25;34.13;;;30.83;;
1428;SDS011;708;51.442;7.016;2022-08-19T08:00:52;17.50;;;15.90;;
1428;SDS011;708;51.442;7.016;2022-08-19T08:03:20;18.43;;;16.63;;
1428;SDS011;708;51.442;7.016;2022-08-19T08:06:08;29.20;;;26.53;;
1428;SDS011;708;51.442;7.016;2022-08-19T08:08:54;24.53;;;22.30;;
1428;SDS011;708;51.442;7.016;2022-08-19T08:11:47;25.53;;;23.10;;
1428;SDS011;708;51.442;7.016;2022-08-19T08:14:17;35.53;;;32.13;;
1428;SDS011;708;51.442;7.016;2022-08-19T08:16:46;35.13;;;31.77;;
1428;SDS011;708;51.442;7.016;2022-08-19T08:19:14;36.57;;;33.17;;
1428;SDS011;708;51.442;7.016;2022-08-19T08:21:42;30.57;;;27.63;;
1428;SDS011;708;51.442;7.016;2022-08-19T08:24:10;30.87;;;28.03;;
1428;SDS011;708;51.442;7.016;2022-08-19T08:26:38;25.37;;;22.80;;
1428;SDS011;708;51.442;7.016;2022-08-19T08:29:05;21.97;;;19.97;;
1428;SDS011;708;51.442;7.016;2022-08-19T08:31:39;21.77;;;19.77;;
1428;SDS011;708;51.442;7.016;2022-08-19T08:34:11;29.37;;;26.87;;
1428;SDS011;708;51.442;7.016;2022-08-19T08:36:44;25.00;;;22.50;;
1428;SDS011;708;51.442;7.016;2022-08-19T08:39:13;22.03;;;19.97;;
1428;SDS011;708;51.442;7.016;2022-08-19T08:41:44;19.83;;;17.90;;
1428;SDS011;708;51.442;7.016;2022-08-19T08:44:20;20.43;;;18.73;;
1428;SDS011;708;51.442;7.016;2022-08-19T08:46:55;19.80;;;18.20;;
1428;SDS011;708;51.442;7.016;2022-08-19T08:49:28;19.50;;;17.07;;
1428;SDS011;708;51.442;7.016;2022-08-19T08:52:01;23.60;;;21.60;;
1428;SDS011;708;51.442;7.016;2022-08-19T08:54:33;20.10;;;18.10;;
1428;SDS011;708;51.442;7.016;2022-08-19T08:57:02;19.13;;;17.03;;
1428;SDS011;708;51.442;7.016;2022-08-19T08:59:34;16.67;;;15.03;;
1428;SDS011;708;51.442;7.016;2022-08-19T09:02:03;16.70;;;15.30;;
1428;SDS011;708;51.442;7.016;2022-08-19T09:04:30;18.57;;;16.80;;
1428;SDS011;708;51.442;7.016;2022-08-19T09:06:59;16.40;;;14.90;;
1428;SDS011;708;51.442;7.016;2022-08-19T09:09:38;12.57;;;11.40;;
1428;SDS011;708;51.442;7.016;2022-08-19T09:12:08;14.90;;;13.47;;
1428;SDS011;708;51.442;7.016;2022-08-19T09:14:43;13.30;;;12.00;;
1428;SDS011;708;51.442;7.016;2022-08-19T09:17:14;13.93;;;12.63;;
1428;SDS011;708;51.442;7.016;2022-08-19T09:19:48;18.73;;;16.60;;
1428;SDS011;708;51.442;7.016;2022-08-19T09:22:17;12.47;;;11.37;;
1428;SDS011;708;51.442;7.016;2022-08-19T09:24:47;12.30;;;11.20;;
1428;SDS011;708;51.442;7.016;2022-08-19T09:27:15;14.53;;;12.67;;
1428;SDS011;708;51.442;7.016;2022-08-19T09:29:42;15.23;;;13.80;;
1428;SDS011;708;51.442;7.016;2022-08-19T09:32:08;19.30;;;17.53;;
1428;SDS011;708;51.442;7.016;2022-08-19T09:34:35;15.00;;;13.63;;
1428;SDS011;708;51.442;7.016;2022-08-19T09:37:02;12.43;;;11.30;;
1428;SDS011;708;51.442;7.016;2022-08-19T09:39:30;11.87;;;10.77;;
1428;SDS011;708;51.442;7.016;2022-08-19T09:41:58;8.57;;;7.77;;
1428;SDS011;708;51.442;7.016;2022-08-19T09:44:25;11.03;;;9.93;;
1428;SDS011;708;51.442;7.016;2022-08-19T09:46:52;12.07;;;10.77;;
1428;SDS011;708;51.442;7.016;2022-08-19T09:49:19;9.13;;;8.40;;
1428;SDS011;708;51.442;7.016;2022-08-19T09:51:48;9.27;;;8.37;;
1428;SDS011;708;51.442;7.016;2022-08-19T09:54:15;10.17;;;9.27;;
1428;SDS011;708;51.442;7.016;2022-08-19T09:56:42;8.83;;;8.03;;
1428;SDS011;708;51.442;7.016;2022-08-19T09:59:10;13.73;;;12.47;;
1428;SDS011;708;51.442;7.016;2022-08-19T10:01:38;9.60;;;8.63;;
1428;SDS011;708;51.442;7.016;2022-08-19T10:04:04;11.77;;;10.77;;
1428;SDS011;708;51.442;7.016;2022-08-19T10:06:33;12.30;;;11.20;;
1428;SDS011;708;51.442;7.016;2022-08-19T10:09:01;13.60;;;12.37;;
1428;SDS011;708;51.442;7.016;2022-08-19T10:11:29;12.53;;;11.43;;
1428;SDS011;708;51.442;7.016;2022-08-19T10:13:56;18.20;;;16.60;;
1428;SDS011;708;51.442;7.016;2022-08-19T10:16:24;13.40;;;12.00;;
1428;SDS011;708;51.442;7.016;2022-08-19T10:18:51;15.20;;;13.80;;
1428;SDS011;708;51.442;7.016;2022-08-19T10:21:20;12.20;;;11.13;;
1428;SDS011;708;51.442;7.016;2022-08-19T10:23:48;14.20;;;12.80;;
1428;SDS011;708;51.442;7.016;2022-08-19T10:26:20;14.57;;;13.27;;
1428;SDS011;708;51.442;7.016;2022-08-19T10:28:49;17.67;;;15.97;;
1428;SDS011;708;51.442;7.016;2022-08-19T10:31:17;14.60;;;13.27;;
1428;SDS011;708;51.442;7.016;2022-08-19T10:33:51;19.57;;;17.70;;
1428;SDS011;708;51.442;7.016;2022-08-19T10:36:22;18.70;;;16.90;;
1428;SDS011;708;51.442;7.016;2022-08-19T10:38:51;17.80;;;16.10;;
1428;SDS011;708;51.442;7.016;2022-08-19T10:41:23;19.77;;;15.17;;
1428;SDS011;708;51.442;7.016;2022-08-19T10:43:51;16.90;;;15.40;;
1428;SDS011;708;51.442;7.016;2022-08-19T10:46:19;18.30;;;16.53;;
1428;SDS011;708;51.442;7.016;2022-08-19T10:48:48;17.90;;;14.77;;
1428;SDS011;708;51.442;7.016;2022-08-19T10:51:17;19.30;;;17.43;;
1428;SDS011;708;51.442;7.016;2022-08-19T10:54:02;20.03;;;17.70;;
1428;SDS011;708;51.442;7.016;2022-08-19T10:56:29;23.43;;;21.10;;
1428;SDS011;708;51.442;7.016;2022-08-19T10:59:14;22.50;;;20.30;;
1428;SDS011;708;51.442;7.016;2022-08-19T11:01:42;18.67;;;16.87;;
1428;SDS011;708;51.442;7.016;2022-08-19T11:04:10;21.17;;;19.13;;
1428;SDS011;708;51.442;7.016;2022-08-19T11:06:40;15.23;;;13.60;;
1428;SDS011;708;51.442;7.016;2022-08-19T11:09:08;17.43;;;15.70;;
1428;SDS011;708;51.442;7.016;2022-08-19T11:11:36;17.20;;;15.50;;
1428;SDS011;708;51.442;7.016;2022-08-19T11:14:05;17.97;;;16.43;;
1428;SDS011;708;51.442;7.016;2022-08-19T11:16:33;21.07;;;18.97;;
1428;SDS011;708;51.442;7.016;2022-08-19T11:19:00;19.60;;;17.30;;
1428;SDS011;708;51.442;7.016;2022-08-19T11:21:28;13.60;;;12.40;;
1428;SDS011;708;51.442;7.016;2022-08-19T11:23:59;16.50;;;15.00;;
1428;SDS011;708;51.442;7.016;2022-08-19T11:26:27;14.07;;;12.70;;
1428;SDS011;708;51.442;7.016;2022-08-19T11:28:55;15.07;;;13.67;;
1428;SDS011;708;51.442;7.016;2022-08-19T11:31:23;17.40;;;14.20;;
1428;SDS011;708;51.442;7.016;2022-08-19T11:33:52;14.83;;;13.53;;
1428;SDS011;708;51.442;7.016;2022-08-19T11:36:19;15.13;;;13.73;;
1428;SDS011;708;51.442;7.016;2022-08-19T11:38:47;16.43;;;14.93;;
1428;SDS011;708;51.442;7.016;2022-08-19T11:41:17;16.20;;;14.70;;
1428;SDS011;708;51.442;7.016;2022-08-19T11:43:45;14.23;;;12.83;;
1428;SDS011;708;51.442;7.016;2022-08-19T11:46:12;17.57;;;15.70;;
1428;SDS011;708;51.442;7.016;2022-08-19T11:48:41;12.87;;;11.80;;
1428;SDS011;708;51.442;7.016;2022-08-19T11:51:09;12.87;;;11.77;;
1428;SDS011;708;51.442;7.016;2022-08-19T11:53:37;16.80;;;15.20;;
1428;SDS011;708;51.442;7.016;2022-08-19T11:56:05;11.23;;;10.30;;
1428;SDS011;708;51.442;7.016;2022-08-19T11:58:35;12.13;;;11.03;;
1428;SDS011;708;51.442;7.016;2022-08-19T12:01:04;12.07;;;10.87;;
1428;SDS011;708;51.442;7.016;2022-08-19T12:03:32;11.20;;;10.20;;
1428;SDS011;708;51.442;7.016;2022-08-19T12:06:02;12.23;;;11.03;;
1428;SDS011;708;51.442;7.016;2022-08-19T12:08:30;12.90;;;11.70;;
1428;SDS011;708;51.442;7.016;2022-08-19T12:10:57;11.60;;;10.60;;
1428;SDS011;708;51.442;7.016;2022-08-19T12:13:26;10.37;;;9.47;;
1428;SDS011;708;51.442;7.016;2022-08-19T12:15:54;9.63;;;8.70;;
1428;SDS011;708;51.442;7.016;2022-08-19T12:18:22;10.87;;;9.77;;
1428;SDS011;708;51.442;7.016;2022-08-19T12:20:50;14.37;;;12.97;;
1428;SDS011;708;51.442;7.016;2022-08-19T12:23:19;10.77;;;9.70;;
1428;SDS011;708;51.442;7.016;2022-08-19T12:25:49;12.40;;;11.23;;
1428;SDS011;708;51.442;7.016;2022-08-19T12:28:17;9.40;;;8.50;;
1428;SDS011;708;51.442;7.016;2022-08-19T12:30:45;10.07;;;9.17;;
1428;SDS011;708;51.442;7.016;2022-08-19T12:33:13;8.63;;;7.60;;
1428;SDS011;708;51.442;7.016;2022-08-19T12:35:40;10.20;;;9.30;;
1428;SDS011;708;51.442;7.016;2022-08-19T12:38:11;8.37;;;7.67;;
1428;SDS011;708;51.442;7.016;2022-08-19T12:40:39;9.57;;;8.67;;
1428;SDS011;708;51.442;7.016;2022-08-19T12:43:07;10.10;;;9.20;;
1428;SDS011;708;51.442;7.016;2022-08-19T12:45:37;12.03;;;10.57;;
1428;SDS011;708;51.442;7.016;2022-08-19T12:48:07;9.80;;;8.90;;
1428;SDS011;708;51.442;7.016;2022-08-19T12:50:39;11.63;;;10.63;;
1428;SDS011;708;51.442;7.016;2022-08-19T12:53:06;9.70;;;8.83;;
1428;SDS011;708;51.442;7.016;2022-08-19T12:55:33;10.57;;;9.67;;
1428;SDS011;708;51.442;7.016;2022-08-19T12:58:00;9.27;;;8.47;;
1428;SDS011;708;51.442;7.016;2022-08-19T13:00:27;7.23;;;6.50;;
1428;SDS011;708;51.442;7.016;2022-08-19T13:02:56;7.10;;;6.50;;
1428;SDS011;708;51.442;7.016;2022-08-19T13:05:23;7.13;;;6.43;;
1428;SDS011;708;51.442;7.016;2022-08-19T13:07:53;11.43;;;6.93;;
1428;SDS011;708;51.442;7.016;2022-08-19T13:10:25;8.00;;;7.20;;
1428;SDS011;708;51.442;7.016;2022-08-19T13:12:53;7.07;;;5.90;;
1428;SDS011;708;51.442;7.016;2022-08-19T13:15:22;7.10;;;6.43;;
1428;SDS011;708;51.442;7.016;2022-08-19T13:17:53;7.23;;;6.63;;
1428;SDS011;708;51.442;7.016;2022-08-19T13:20:21;6.40;;;5.80;;
1428;SDS011;708;51.442;7.016;2022-08-19T13:22:49;8.07;;;6.60;;
1428;SDS011;708;51.442;7.016;2022-08-19T13:25:18;6.53;;;5.90;;
1428;SDS011;708;51.442;7.016;2022-08-19T13:27:49;7.67;;;6.97;;
1428;SDS011;708;51.442;7.016;2022-08-19T13:30:21;7.00;;;5.87;;
1428;SDS011;708;51.442;7.016;2022-08-19T13:33:05;6.70;;;6.10;;
1428;SDS011;708;51.442;7.016;2022-08-19T13:35:41;7.30;;;5.43;;
1428;SDS011;708;51.442;7.016;2022-08-19T13:38:10;6.53;;;5.93;;
1428;SDS011;708;51.442;7.016;2022-08-19T13:40:39;6.90;;;6.27;;
1428;SDS011;708;51.442;7.016;2022-08-19T13:43:07;6.57;;;5.97;;
1428;SDS011;708;51.442;7.016;2022-08-19T13:45:35;6.90;;;6.00;;
1428;SDS011;708;51.442;7.016;2022-08-19T13:48:03;6.90;;;6.30;;
1428;SDS011;708;51.442;7.016;2022-08-19T13:50:33;6.77;;;6.17;;
1428;SDS011;708;51.442;7.016;2022-08-19T13:53:04;7.97;;;7.17;;
1428;SDS011;708;51.442;7.016;2022-08-19T13:55:30;5.93;;;5.43;;
1428;SDS011;708;51.442;7.016;2022-08-19T13:57:59;6.53;;;5.93;;
1428;SDS011;708;51.442;7.016;2022-08-19T14:00:32;6.60;;;6.00;;
1428;SDS011;708;51.442;7.016;2022-08-19T14:03:01;6.40;;;5.80;;
1428;SDS011;708;51.442;7.016;2022-08-19T14:05:29;6.80;;;6.10;;
1428;SDS011;708;51.442;7.016;2022-08-19T14:07:57;6.50;;;5.90;;
1428;SDS011;708;51.442;7.016;2022-08-19T14:10:24;6.30;;;5.70;;
1428;SDS011;708;51.442;7.016;2022-08-19T14:12:53;6.20;;;5.60;;
1428;SDS011;708;51.442;7.016;2022-08-19T14:15:24;5.80;;;5.20;;
1428;SDS011;708;51.442;7.016;2022-08-19T14:17:52;6.50;;;5.90;;
1428;SDS011;708;51.442;7.016;2022-08-19T14:20:35;6.43;;;5.87;;
1428;SDS011;708;51.442;7.016;2022-08-19T14:23:09;6.20;;;5.60;;
1428;SDS011;708;51.442;7.016;2022-08-19T14:25:37;6.80;;;5.97;;
1428;SDS011;708;51.442;7.016;2022-08-19T14:28:04;8.13;;;7.33;;
1428;SDS011;708;51.442;7.016;2022-08-19T14:30:33;7.40;;;6.70;;
1428;SDS011;708;51.442;7.016;2022-08-19T14:33:03;6.93;;;6.17;;
1428;SDS011;708;51.442;7.016;2022-08-19T14:35:31;12.17;;;7.57;;
1428;SDS011;708;51.442;7.016;2022-08-19T14:38:00;6.83;;;5.60;;
1428;SDS011;708;51.442;7.016;2022-08-19T14:40:28;6.60;;;5.43;;
1428;SDS011;708;51.442;7.016;2022-08-19T14:42:57;12.33;;;7.00;;
1428;SDS011;708;51.442;7.016;2022-08-19T14:45:29;5.10;;;4.60;;
1428;SDS011;708;51.442;7.016;2022-08-19T14:47:58;7.17;;;6.47;;
1428;SDS011;708;51.442;7.016;2022-08-19T14:50:25;9.03;;;8.07;;
1428;SDS011;708;51.442;7.016;2022-08-19T14:52:57;9.20;;;7.17;;
1428;SDS011;708;51.442;7.016;2022-08-19T14:55:24;7.63;;;6.40;;
1428;SDS011;708;51.442;7.016;2022-08-19T14:57:51;7.53;;;6.50;;
1428;SDS011;708;51.442;7.016;2022-08-19T15:00:19;6.87;;;5.57;;
1428;SDS011;708;51.442;7.016;2022-08-19T15:02:46;16.20;;;8.27;;
1428;SDS011;708;51.442;7.016;2022-08-19T15:05:14;7.47;;;6.77;;
1428;SDS011;708;51.442;7.016;2022-08-19T15:07:41;7.33;;;6.63;;
1428;SDS011;708;51.442;7.016;2022-08-19T15:10:09;13.20;;;8.93;;
1428;SDS011;708;51.442;7.016;2022-08-19T15:12:37;6.83;;;5.20;;
1428;SDS011;708;51.442;7.016;2022-08-19T15:15:05;8.37;;;7.57;;
1428;SDS011;708;51.442;7.016;2022-08-19T15:17:33;13.30;;;9.53;;
1428;SDS011;708;51.442;7.016;2022-08-19T15:20:02;10.70;;;9.60;;
1428;SDS011;708;51.442;7.016;2022-08-19T15:22:31;11.67;;;9.13;;
1428;SDS011;708;51.442;7.016;2022-08-19T15:24:58;10.50;;;6.87;;
1428;SDS011;708;51.442;7.016;2022-08-19T15:27:26;6.60;;;6.00;;